createdAt,value
2019-02-18T00:01:29.709Z,24.50
2019-02-18T00:04:01.063Z,25.17
2019-02-18T00:06:37.575Z,24.40
2019-02-18T00:09:07.619Z,24.03
2019-02-18T00:11:39.434Z,24.47
2019-02-18T00:14:09.163Z,25.67
2019-02-18T00:16:39.692Z,24.27
2019-02-18T00:19:17.982Z,25.23
2019-02-18T00:21:51.867Z,25.73
2019-02-18T00:24:25.076Z,25.20
2019-02-18T00:26:56.049Z,25.57
2019-02-18T00:29:29.740Z,24.37
2019-02-18T00:32:00.146Z,23.30
2019-02-18T00:34:34.225Z,25.77
2019-02-18T00:37:04.161Z,24.73
2019-02-18T00:39:34.954Z,26.30
2019-02-18T00:42:06.107Z,26.20
2019-02-18T00:44:38.705Z,26.37
2019-02-18T00:47:09.006Z,26.63
2019-02-18T00:49:44.320Z,27.50
2019-02-18T00:52:20.540Z,27.03
2019-02-18T00:54:50.389Z,26.77
2019-02-18T00:57:22.658Z,28.10
2019-02-18T00:59:53.315Z,26.83
2019-02-18T01:02:31.410Z,26.80
2019-02-18T01:05:02.765Z,27.50
2019-02-18T01:07:35.194Z,27.97
2019-02-18T01:10:06.543Z,26.40
2019-02-18T01:12:51.955Z,27.83
2019-02-18T01:15:35.759Z,28.97
2019-02-18T01:18:07.598Z,27.93
2019-02-18T01:20:40.841Z,27.93
2019-02-18T01:23:11.436Z,27.30
2019-02-18T01:25:41.740Z,27.17
2019-02-18T01:28:11.015Z,27.70
2019-02-18T01:30:43.117Z,27.77
2019-02-18T01:33:14.035Z,28.57
2019-02-18T01:35:44.600Z,26.37
2019-02-18T01:38:17.499Z,26.80
2019-02-18T01:40:47.540Z,25.20
2019-02-18T01:43:17.468Z,25.57
2019-02-18T01:45:49.336Z,25.43
2019-02-18T01:48:18.806Z,25.13
2019-02-18T01:50:48.482Z,24.27
2019-02-18T01:53:20.852Z,24.20
2019-02-18T01:55:53.665Z,23.73
2019-02-18T01:58:27.557Z,24.90
2019-02-18T02:01:05.382Z,24.60
2019-02-18T02:03:48.044Z,23.70
2019-02-18T02:06:30.639Z,24.27
2019-02-18T02:09:01.920Z,24.93
2019-02-18T02:11:34.983Z,25.20
2019-02-18T02:14:06.330Z,24.50
2019-02-18T02:16:35.533Z,24.57
2019-02-18T02:19:06.214Z,25.40
2019-02-18T02:21:37.383Z,25.83
2019-02-18T02:24:41.774Z,24.83
2019-02-18T02:27:13.913Z,24.67
2019-02-18T02:29:43.621Z,24.27
2019-02-18T02:32:13.517Z,23.67
2019-02-18T02:34:43.298Z,24.17
2019-02-18T02:37:14.280Z,24.03
2019-02-18T02:39:46.745Z,23.53
2019-02-18T02:42:17.309Z,23.10
2019-02-18T02:44:53.661Z,23.33
2019-02-18T02:47:24.237Z,23.27
2019-02-18T02:49:56.815Z,23.90
2019-02-18T02:52:41.045Z,23.80
2019-02-18T02:55:16.640Z,23.00
2019-02-18T02:57:59.578Z,22.93
2019-02-18T03:00:40.360Z,22.90
2019-02-18T03:03:25.847Z,23.33
2019-02-18T03:09:19.143Z,24.00
2019-02-18T03:12:48.544Z,24.37
2019-02-18T03:16:01.323Z,23.70
2019-02-18T03:18:55.622Z,22.93
2019-02-18T03:21:52.080Z,23.87
2019-02-18T03:24:55.278Z,24.63
2019-02-18T03:27:57.413Z,23.97
2019-02-18T03:30:55.215Z,25.40
2019-02-18T03:34:01.879Z,25.63
2019-02-18T03:36:59.273Z,23.63
2019-02-18T03:39:52.098Z,24.87
2019-02-18T03:42:44.709Z,25.17
2019-02-18T03:45:19.864Z,26.17
2019-02-18T03:48:14.821Z,26.13
2019-02-18T03:50:48.630Z,26.90
2019-02-18T03:53:39.430Z,26.90
2019-02-18T03:56:13.244Z,26.67
2019-02-18T03:58:44.336Z,27.33
2019-02-18T04:01:15.716Z,27.90
2019-02-18T04:03:45.701Z,28.33
2019-02-18T04:06:18.472Z,26.27
2019-02-18T04:08:48.301Z,27.40
2019-02-18T04:11:22.917Z,27.43
2019-02-18T04:13:59.030Z,26.97
2019-02-18T04:16:36.642Z,26.83
2019-02-18T04:19:28.131Z,28.13
2019-02-18T04:22:00.775Z,27.60
2019-02-18T04:24:31.913Z,27.20
2019-02-18T04:27:07.047Z,28.60
2019-02-18T04:30:21.374Z,28.80
2019-02-18T04:37:43.897Z,28.37
2019-02-18T04:40:22.139Z,26.13
2019-02-18T04:42:58.300Z,29.43
2019-02-18T04:45:35.939Z,28.67
2019-02-18T04:48:11.708Z,28.40
2019-02-18T04:50:45.297Z,28.13
2019-02-18T04:53:36.130Z,30.43
2019-02-18T04:56:07.189Z,29.67
2019-02-18T04:58:37.550Z,29.10
2019-02-18T05:01:10.173Z,28.17
2019-02-18T05:03:42.247Z,29.83
2019-02-18T05:06:13.869Z,29.10
2019-02-18T05:08:46.824Z,31.30
2019-02-18T05:11:19.291Z,30.37
2019-02-18T05:13:54.494Z,29.40
2019-02-18T05:16:27.334Z,31.13
2019-02-18T05:18:59.907Z,31.13
2019-02-18T05:21:37.975Z,30.13
2019-02-18T05:24:27.917Z,31.97
2019-02-18T05:27:00.045Z,30.17
2019-02-18T05:29:37.583Z,30.17
2019-02-18T05:32:11.623Z,29.70
2019-02-18T05:38:52.935Z,30.40
2019-02-18T05:41:42.983Z,30.37
2019-02-18T05:44:13.807Z,29.17
2019-02-18T05:46:48.361Z,31.80
2019-02-18T05:49:21.050Z,32.80
2019-02-18T06:00:51.344Z,31.10
2019-02-18T06:14:25.166Z,34.57
2019-02-18T06:48:38.464Z,33.10
2019-02-18T06:51:12.736Z,33.77
2019-02-18T06:53:50.110Z,34.10
2019-02-18T06:56:53.669Z,35.87
2019-02-18T07:00:05.135Z,34.27
2019-02-18T07:15:15.848Z,32.87
2019-02-18T07:17:55.308Z,33.23
2019-02-18T07:20:25.219Z,32.50
2019-02-18T07:23:00.423Z,32.30
2019-02-18T07:25:40.102Z,32.63
2019-02-18T07:28:09.332Z,32.63
2019-02-18T07:30:39.830Z,32.87
2019-02-18T07:33:10.490Z,31.73
2019-02-18T07:35:45.553Z,31.80
2019-02-18T07:38:15.209Z,31.13
2019-02-18T07:40:44.789Z,33.23
2019-02-18T07:43:14.076Z,32.53
2019-02-18T07:45:43.551Z,30.77
2019-02-18T07:48:13.469Z,31.77
2019-02-18T07:50:44.310Z,31.87
2019-02-18T07:53:14.414Z,32.10
2019-02-18T07:55:43.503Z,31.43
2019-02-18T07:58:13.823Z,32.63
2019-02-18T08:00:42.843Z,31.90
2019-02-18T08:03:12.767Z,31.97
2019-02-18T08:05:42.645Z,32.00
2019-02-18T08:08:11.867Z,31.93
2019-02-18T08:10:45.245Z,31.30
2019-02-18T08:13:14.198Z,31.47
2019-02-18T08:15:43.689Z,30.30
2019-02-18T08:18:12.765Z,31.30
2019-02-18T08:20:42.346Z,31.93
2019-02-18T08:23:11.561Z,31.17
2019-02-18T08:25:40.893Z,31.33
2019-02-18T08:28:10.159Z,32.57
2019-02-18T08:30:39.092Z,33.53
2019-02-18T08:33:09.334Z,32.10
2019-02-18T08:35:38.405Z,32.93
2019-02-18T08:38:07.843Z,31.60
2019-02-18T08:40:38.499Z,31.43
2019-02-18T08:43:08.314Z,32.57
2019-02-18T08:45:41.224Z,31.27
2019-02-18T08:48:12.251Z,31.07
2019-02-18T08:50:41.326Z,32.90
2019-02-18T08:53:10.469Z,32.63
2019-02-18T08:55:40.113Z,32.47
2019-02-18T08:58:09.336Z,30.77
2019-02-18T09:00:38.947Z,30.93
2019-02-18T09:03:08.971Z,31.23
2019-02-18T09:05:43.510Z,30.37
2019-02-18T09:08:12.854Z,29.97
2019-02-18T09:10:44.275Z,30.83
2019-02-18T09:13:21.858Z,31.57
2019-02-18T09:15:59.712Z,31.47
2019-02-18T09:18:21.875Z,32.20
2019-02-18T09:20:51.929Z,30.87
2019-02-18T09:23:29.513Z,30.53
2019-02-18T09:26:04.882Z,30.70
2019-02-18T09:28:34.225Z,31.27
2019-02-18T09:31:03.654Z,30.57
2019-02-18T09:33:32.734Z,30.63
2019-02-18T09:36:02.851Z,30.30
2019-02-18T09:38:34.912Z,30.40
2019-02-18T09:41:05.787Z,30.57
2019-02-18T09:44:30.172Z,30.13
2019-02-18T09:47:00.359Z,29.20
2019-02-18T09:49:31.132Z,30.27
2019-02-18T09:52:00.344Z,30.63
2019-02-18T09:54:41.087Z,30.40
2019-02-18T09:57:12.974Z,29.70
2019-02-18T09:59:47.957Z,29.80
2019-02-18T10:02:21.162Z,29.33
2019-02-18T10:04:51.350Z,29.87
2019-02-18T10:07:20.839Z,29.77
2019-02-18T10:09:53.896Z,34.27
2019-02-18T10:12:24.641Z,29.80
2019-02-18T10:14:54.654Z,31.33
2019-02-18T10:17:24.063Z,29.70
2019-02-18T10:19:55.283Z,29.50
2019-02-18T10:22:26.529Z,28.17
2019-02-18T10:25:07.100Z,30.00
2019-02-18T10:27:37.473Z,30.03
2019-02-18T10:30:07.316Z,30.40
2019-02-18T10:32:36.669Z,29.37
2019-02-18T10:35:08.224Z,29.40
2019-02-18T10:37:40.570Z,29.60
2019-02-18T10:40:10.788Z,29.73
2019-02-18T10:42:40.323Z,29.27
2019-02-18T10:45:14.679Z,28.37
2019-02-18T10:47:46.270Z,28.93
2019-02-18T10:53:09.744Z,27.40
2019-02-18T10:55:40.403Z,29.47
2019-02-18T10:58:11.210Z,28.97
2019-02-18T11:00:43.711Z,28.80
2019-02-18T11:03:14.740Z,27.70
2019-02-18T11:08:26.984Z,29.03
2019-02-18T11:10:57.359Z,29.37
2019-02-18T11:13:39.783Z,28.97
2019-02-18T11:16:46.117Z,28.43
2019-02-18T11:19:20.720Z,27.83
2019-02-18T11:21:53.561Z,27.87
2019-02-18T11:24:39.529Z,30.53
2019-02-18T11:27:12.530Z,29.20
2019-02-18T11:29:55.754Z,29.83
2019-02-18T11:35:01.731Z,28.10
2019-02-18T11:37:39.749Z,27.50
2019-02-18T11:40:21.838Z,27.97
2019-02-18T11:46:12.247Z,26.70
2019-02-18T11:52:07.833Z,28.37
2019-02-18T11:54:58.378Z,30.03
2019-02-18T11:57:39.735Z,28.60
2019-02-18T12:00:41.663Z,27.63
2019-02-18T12:04:22.321Z,27.03
2019-02-18T12:06:54.016Z,26.53
2019-02-18T12:13:23.527Z,28.63
2019-02-18T12:19:12.772Z,25.70
2019-02-18T12:21:44.828Z,26.77
2019-02-18T12:24:24.492Z,25.30
2019-02-18T12:26:57.176Z,26.63
2019-02-18T12:29:29.025Z,27.57
2019-02-18T12:32:00.506Z,26.17
2019-02-18T12:34:32.353Z,26.10
2019-02-18T12:37:12.536Z,26.93
2019-02-18T12:39:43.434Z,26.87
2019-02-18T12:42:21.567Z,26.00
2019-02-18T12:45:23.434Z,25.60
2019-02-18T12:47:57.749Z,26.17
2019-02-18T12:50:41.375Z,25.30
2019-02-18T12:53:33.398Z,26.63
2019-02-18T12:56:33.390Z,28.43
2019-02-18T12:59:29.844Z,26.77
2019-02-18T13:02:03.471Z,27.40
2019-02-18T13:04:45.735Z,27.37
2019-02-18T13:07:19.851Z,27.40
2019-02-18T13:10:05.495Z,27.73
2019-02-18T13:12:45.539Z,28.10
2019-02-18T13:15:32.368Z,27.83
2019-02-18T13:20:42.218Z,26.47
2019-02-18T13:23:12.791Z,27.50
2019-02-18T13:26:00.723Z,25.87
2019-02-18T13:28:34.961Z,26.80
2019-02-18T13:31:05.909Z,27.53
2019-02-18T13:33:46.138Z,27.13
2019-02-18T13:36:18.731Z,27.03
2019-02-18T13:38:48.732Z,28.87
2019-02-18T13:41:17.873Z,27.53
2019-02-18T13:43:47.152Z,27.67
2019-02-18T13:46:17.215Z,27.67
2019-02-18T13:48:46.338Z,27.13
2019-02-18T13:51:23.862Z,27.70
2019-02-18T13:53:50.906Z,28.13
2019-02-18T13:56:25.711Z,27.60
2019-02-18T13:58:54.681Z,26.10
2019-02-18T14:01:24.938Z,27.30
2019-02-18T14:03:54.239Z,27.13
2019-02-18T14:06:23.531Z,27.40
2019-02-18T14:08:52.677Z,27.33
2019-02-18T14:11:22.258Z,27.27
2019-02-18T14:13:51.274Z,26.40
2019-02-18T14:16:31.839Z,26.40
2019-02-18T14:19:01.403Z,27.53
2019-02-18T14:21:31.711Z,27.03
2019-02-18T14:24:01.543Z,26.77
2019-02-18T14:26:32.273Z,27.70
2019-02-18T14:29:01.938Z,26.60
2019-02-18T14:31:33.872Z,26.97
2019-02-18T14:34:02.929Z,27.37
2019-02-18T14:36:32.769Z,26.83
2019-02-18T14:39:02.160Z,27.67
2019-02-18T14:41:31.382Z,25.90
2019-02-18T14:44:05.713Z,26.60
2019-02-18T14:46:37.833Z,38.70
2019-02-18T14:49:08.029Z,26.40
2019-02-18T14:51:37.512Z,26.27
2019-02-18T14:54:06.658Z,26.70
2019-02-18T14:56:37.301Z,26.43
2019-02-18T14:59:07.093Z,25.27
2019-02-18T15:01:36.337Z,26.73
2019-02-18T15:04:05.604Z,25.73
2019-02-18T15:06:49.055Z,26.70
2019-02-18T15:09:19.261Z,26.67
2019-02-18T15:11:50.644Z,26.77
2019-02-18T15:14:21.819Z,26.57
2019-02-18T15:16:53.510Z,26.77
2019-02-18T15:19:22.576Z,27.40
2019-02-18T15:21:52.590Z,26.63
2019-02-18T15:24:23.398Z,27.80
2019-02-18T15:26:52.422Z,26.90
2019-02-18T15:29:22.451Z,27.27
2019-02-18T15:31:52.867Z,27.20
2019-02-18T15:34:23.050Z,28.07
2019-02-18T15:36:56.528Z,28.00
2019-02-18T15:39:25.717Z,28.47
2019-02-18T15:41:55.602Z,28.07
2019-02-18T15:44:28.029Z,28.23
2019-02-18T15:46:58.270Z,27.40
2019-02-18T15:49:27.193Z,27.17
2019-02-18T15:52:09.430Z,27.57
2019-02-18T15:54:39.346Z,27.13
2019-02-18T15:57:09.837Z,28.03
2019-02-18T15:59:45.294Z,28.83
2019-02-18T16:02:14.859Z,27.57
2019-02-18T16:04:51.083Z,28.53
2019-02-18T16:07:20.553Z,27.83
2019-02-18T16:09:54.551Z,27.83
2019-02-18T16:12:23.871Z,28.70
2019-02-18T16:14:58.528Z,28.50
2019-02-18T16:17:28.231Z,28.30
2019-02-18T16:19:57.969Z,28.20
2019-02-18T16:22:29.468Z,28.60
2019-02-18T16:25:01.032Z,28.13
2019-02-18T16:27:30.053Z,29.43
2019-02-18T16:29:59.132Z,28.17
2019-02-18T16:32:30.179Z,28.17
2019-02-18T16:34:59.661Z,29.47
2019-02-18T16:37:29.345Z,29.37
2019-02-18T16:40:00.942Z,29.27
2019-02-18T16:42:35.724Z,29.87
2019-02-18T16:45:05.895Z,29.60
2019-02-18T16:47:34.935Z,31.10
2019-02-18T16:50:04.290Z,29.33
2019-02-18T16:52:34.283Z,29.17
2019-02-18T16:55:03.771Z,30.47
2019-02-18T16:57:33.886Z,30.60
2019-02-18T17:00:03.800Z,29.73
2019-02-18T17:02:32.733Z,31.57
2019-02-18T17:05:05.585Z,28.57
2019-02-18T17:07:42.409Z,30.30
2019-02-18T17:10:11.372Z,29.37
2019-02-18T17:12:40.509Z,31.53
2019-02-18T17:15:13.806Z,29.23
2019-02-18T17:17:50.104Z,29.90
2019-02-18T17:20:19.245Z,30.17
2019-02-18T17:22:48.545Z,30.37
2019-02-18T17:25:23.141Z,30.90
2019-02-18T17:27:52.136Z,28.90
2019-02-18T17:30:25.494Z,29.50
2019-02-18T17:32:59.122Z,30.07
2019-02-18T17:35:30.042Z,29.97
2019-02-18T17:37:59.141Z,29.20
2019-02-18T17:40:28.597Z,30.50
2019-02-18T17:42:59.446Z,30.23
2019-02-18T17:45:34.042Z,29.63
2019-02-18T17:48:04.983Z,30.90
2019-02-18T17:50:34.034Z,29.27
2019-02-18T17:53:03.359Z,31.00
2019-02-18T17:55:32.422Z,30.83
2019-02-18T17:58:01.689Z,29.97
2019-02-18T18:00:32.967Z,29.90
2019-02-18T18:03:01.876Z,30.50
2019-02-18T18:05:36.230Z,31.30
2019-02-18T18:08:05.401Z,30.47
2019-02-18T18:10:35.168Z,31.93
2019-02-18T18:13:04.407Z,32.47
2019-02-18T18:15:34.999Z,32.30
2019-02-18T18:18:05.977Z,31.30
2019-02-18T18:20:36.120Z,32.97
2019-02-18T18:23:09.931Z,32.80
2019-02-18T18:25:41.613Z,33.03
2019-02-18T18:28:11.096Z,32.60
2019-02-18T18:30:40.097Z,32.20
2019-02-18T18:33:09.321Z,33.80
2019-02-18T18:35:38.797Z,33.33
2019-02-18T18:38:08.874Z,34.13
2019-02-18T18:40:37.915Z,33.07
2019-02-18T18:43:06.987Z,33.03
2019-02-18T18:45:42.903Z,32.53
2019-02-18T18:48:12.182Z,33.23
2019-02-18T18:50:41.529Z,32.30
2019-02-18T18:53:13.249Z,31.57
2019-02-18T18:55:49.564Z,33.63
2019-02-18T18:58:18.989Z,35.00
2019-02-18T19:00:48.335Z,33.47
2019-02-18T19:03:17.339Z,34.00
2019-02-18T19:05:46.351Z,34.37
2019-02-18T19:08:15.445Z,32.90
2019-02-18T19:10:44.419Z,34.03
2019-02-18T19:13:13.328Z,32.43
2019-02-18T19:15:49.489Z,33.17
2019-02-18T19:18:12.979Z,33.80
2019-02-18T19:20:41.953Z,34.40
2019-02-18T19:23:11.045Z,32.57
2019-02-18T19:25:39.929Z,33.93
2019-02-18T19:28:08.873Z,32.80
2019-02-18T19:30:37.849Z,33.50
2019-02-18T19:33:06.909Z,34.73
2019-02-18T19:35:36.096Z,34.67
2019-02-18T19:38:05.227Z,34.10
2019-02-18T19:40:34.175Z,34.20
2019-02-18T19:43:03.515Z,33.37
2019-02-18T19:45:32.658Z,33.67
2019-02-18T19:48:01.499Z,33.07
2019-02-18T19:50:30.481Z,35.03
2019-02-18T19:52:59.698Z,35.73
2019-02-18T19:55:29.256Z,32.23
2019-02-18T19:57:58.501Z,33.63
2019-02-18T20:00:27.414Z,34.17
2019-02-18T20:02:56.334Z,32.57
2019-02-18T20:05:25.702Z,33.27
2019-02-18T20:07:54.742Z,32.27
2019-02-18T20:10:23.821Z,32.60
2019-02-18T20:12:56.450Z,33.77
2019-02-18T20:15:25.555Z,32.67
2019-02-18T20:17:54.711Z,32.53
2019-02-18T20:20:24.314Z,33.33
2019-02-18T20:22:53.372Z,32.13
2019-02-18T20:25:22.868Z,32.10
2019-02-18T20:27:51.814Z,30.67
2019-02-18T20:30:20.838Z,31.83
2019-02-18T20:32:49.984Z,34.10
2019-02-18T20:35:20.375Z,32.93
2019-02-18T20:37:49.468Z,31.07
2019-02-18T20:40:19.659Z,31.30
2019-02-18T20:42:48.772Z,31.57
2019-02-18T20:45:18.149Z,31.03
2019-02-18T20:47:47.697Z,29.87
2019-02-18T20:50:17.465Z,31.07
2019-02-18T20:52:48.204Z,30.30
2019-02-18T20:55:17.228Z,29.27
2019-02-18T20:57:46.245Z,29.03
2019-02-18T21:00:19.147Z,30.10
2019-02-18T21:02:48.195Z,29.73
2019-02-18T21:05:17.510Z,29.03
2019-02-18T21:07:46.592Z,30.00
2019-02-18T21:10:16.178Z,29.73
2019-02-18T21:12:45.245Z,28.67
2019-02-18T21:15:14.219Z,30.47
2019-02-18T21:17:43.231Z,30.07
2019-02-18T21:20:12.856Z,29.20
2019-02-18T21:22:42.541Z,29.73
2019-02-18T21:25:11.705Z,30.20
2019-02-18T21:27:40.693Z,29.80
2019-02-18T21:30:10.666Z,28.70
2019-02-18T21:32:40.025Z,28.63
2019-02-18T21:35:09.242Z,29.13
2019-02-18T21:37:38.200Z,29.43
2019-02-18T21:40:07.385Z,27.93
2019-02-18T21:42:36.311Z,29.07
2019-02-18T21:45:05.578Z,30.17
2019-02-18T21:47:34.470Z,29.33
2019-02-18T21:50:03.659Z,29.30
2019-02-18T21:52:32.614Z,29.50
2019-02-18T21:55:01.505Z,30.47
2019-02-18T21:57:30.569Z,29.90
2019-02-18T21:59:59.506Z,30.93
2019-02-18T22:02:28.734Z,30.43
2019-02-18T22:05:03.166Z,31.33
2019-02-18T22:07:32.485Z,32.13
2019-02-18T22:10:01.345Z,31.93
2019-02-18T22:12:30.386Z,30.67
2019-02-18T22:15:00.475Z,30.23
2019-02-18T22:17:29.391Z,30.97
2019-02-18T22:20:06.545Z,32.07
2019-02-18T22:22:35.806Z,31.43
2019-02-18T22:25:15.244Z,32.87
2019-02-18T22:27:45.377Z,32.23
2019-02-18T22:30:14.832Z,32.73
2019-02-18T22:32:44.341Z,32.40
2019-02-18T22:35:16.147Z,32.13
2019-02-18T22:37:47.094Z,32.07
2019-02-18T22:40:16.909Z,32.47
2019-02-18T22:42:46.528Z,32.07
2019-02-18T22:45:21.104Z,32.43
2019-02-18T22:47:52.770Z,30.93
2019-02-18T22:50:26.130Z,31.90
2019-02-18T22:52:55.334Z,32.10
2019-02-18T22:55:28.952Z,32.87
2019-02-18T22:57:58.323Z,31.73
2019-02-18T23:00:50.524Z,31.83
2019-02-18T23:03:20.035Z,31.40
2019-02-18T23:05:50.093Z,32.10
2019-02-18T23:08:19.571Z,31.57
2019-02-18T23:10:48.690Z,31.47
2019-02-18T23:13:20.251Z,31.77
2019-02-18T23:15:50.718Z,31.83
2019-02-18T23:18:20.094Z,31.47
2019-02-18T23:20:53.400Z,31.73
2019-02-18T23:23:25.466Z,31.70
2019-02-18T23:26:00.396Z,32.57
2019-02-18T23:28:29.849Z,30.67
2019-02-18T23:31:01.970Z,31.37
2019-02-18T23:33:35.899Z,30.13
2019-02-18T23:36:10.982Z,30.30
2019-02-18T23:38:40.182Z,29.43
2019-02-18T23:41:13.507Z,30.53
2019-02-18T23:43:42.608Z,29.33
2019-02-18T23:46:14.618Z,28.97
2019-02-18T23:48:43.657Z,29.73
2019-02-18T23:51:18.650Z,29.57
2019-02-18T23:53:48.181Z,28.23
2019-02-18T23:56:17.398Z,28.30
2019-02-18T23:58:46.842Z,28.53
